Terminal Aerodrome Forecast
Issued by NWS

Home | Current Version | Previous Version | Text Only | Print | Product List | Glossary On
Versions: 1 2 3 4 5 6 7 8 9 10 11 12 13 14 15 16 17 18 19 20 21 22 23
308
FTUS41 KAKQ 261733
TAFPHF
TAF
KPHF 261733Z 2618/2718 VRB03KT P6SM BKN050
     FM262100 14006KT P6SM BKN100
     FM270200 13006KT P6SM BKN050
     FM270600 12006KT 6SM SHRA OVC025
     FM270800 12007KT 5SM SHRA OVC010
     FM271000 14006KT P6SM OVC008
     FM271400 19007KT P6SM BKN015=

USA.gov is the U.S. government's official web portal to all federal, state and local government web resources and services.